Time;durP1;ratioP1;P1;durP2;ratioP2;P2;SDS_P1;SDS_P2;PMS_P1;PMS_P2;Temp;Humidity;BMP_temperature;BMP_pressure;BME280_temperature;BME280_humidity;BME280_pressure;Samples;Min_cycle;Max_cycle;Signal;HPM_P1;HPM_P2
2022/03/08 00:00:00;;;;;;;4.30;2.97;;;;;;;;;;6189597;22;20070;-88
2022/03/08 00:02:42;;;;;;;4.57;3.03;;;;;;;;;;6215868;22;20070;-87
2022/03/08 00:05:08;;;;;;;4.82;3.47;;;;;;;;;;6267420;22;20596;-88
2022/03/08 00:07:34;;;;;;;2.95;2.55;;;;;;;;;;6265744;22;20468;-87
2022/03/08 00:10:10;;;;;;;4.32;2.70;;;;;;;;;;6213480;22;20436;-88
2022/03/08 00:12:39;;;;;;;5.35;3.75;;;;;;;;;;6265323;22;20035;-87
2022/03/08 00:15:07;;;;;;;4.30;3.33;;;;;;;;;;6238219;22;20508;-87
2022/03/08 00:17:33;;;;;;;4.60;3.00;;;;;;;;;;6266192;22;20071;-88
2022/03/08 00:19:59;;;;;;;4.57;2.75;;;;;;;;;;6213456;22;20034;-87
2022/03/08 00:22:25;;;;;;;3.55;2.92;;;;;;;;;;6240903;22;20154;-87
2022/03/08 00:24:51;;;;;;;5.20;3.30;;;;;;;;;;6267591;22;20017;-88
2022/03/08 00:27:17;;;;;;;6.32;3.70;;;;;;;;;;6192218;22;20020;-88
2022/03/08 00:29:44;;;;;;;6.75;3.90;;;;;;;;;;6215312;22;20047;-88
2022/03/08 00:32:13;;;;;;;6.07;3.60;;;;;;;;;;6268294;22;20016;-86
2022/03/08 00:34:39;;;;;;;5.63;4.05;;;;;;;;;;6269413;22;20024;-88
2022/03/08 00:37:08;;;;;;;5.82;3.80;;;;;;;;;;6269024;22;20054;-87
2022/03/08 00:39:34;;;;;;;4.80;3.90;;;;;;;;;;6215555;22;20031;-86
2022/03/08 00:42:00;;;;;;;7.10;4.50;;;;;;;;;;6268289;22;20015;-87
2022/03/08 00:44:26;;;;;;;6.95;4.32;;;;;;;;;;6240876;22;20019;-87
2022/03/08 00:46:53;;;;;;;5.85;4.38;;;;;;;;;;6267782;22;20015;-87
2022/03/08 00:49:19;;;;;;;4.70;4.10;;;;;;;;;;6191764;22;20382;-86
2022/03/08 00:51:45;;;;;;;5.50;4.25;;;;;;;;;;6215177;22;20165;-87
2022/03/08 00:54:11;;;;;;;5.15;4.43;;;;;;;;;;6268609;22;20022;-87
2022/03/08 00:56:37;;;;;;;7.80;4.50;;;;;;;;;;6241036;22;20452;-88
2022/03/08 00:59:03;;;;;;;9.98;4.75;;;;;;;;;;6268097;22;20027;-87
2022/03/08 01:01:45;;;;;;;6.95;5.15;;;;;;;;;;6190155;22;20073;-87
2022/03/08 01:04:21;;;;;;;6.05;4.63;;;;;;;;;;6242421;22;20019;-87
2022/03/08 01:06:55;;;;;;;8.63;4.78;;;;;;;;;;6266771;22;20023;-87
2022/03/08 01:09:21;;;;;;;9.25;5.45;;;;;;;;;;6242503;22;20028;-88
2022/03/08 01:11:47;;;;;;;5.43;4.85;;;;;;;;;;6215092;22;20016;-86
2022/03/08 01:14:22;;;;;;;8.80;5.00;;;;;;;;;;6241271;22;20089;-88
2022/03/08 01:17:01;;;;;;;5.90;5.30;;;;;;;;;;6214812;22;20031;-87
2022/03/08 01:19:27;;;;;;;6.70;5.15;;;;;;;;;;6241200;22;20030;-88
2022/03/08 01:24:46;;;;;;;6.20;5.60;;;;;;;;;;6218820;22;20020;-88
2022/03/08 01:27:12;;;;;;;7.82;6.00;;;;;;;;;;6188911;22;20026;-88
2022/03/08 01:29:54;;;;;;;10.27;6.75;;;;;;;;;;6214341;22;20030;-87
2022/03/08 01:32:21;;;;;;;9.98;6.90;;;;;;;;;;6238342;22;20023;-88
2022/03/08 01:34:47;;;;;;;7.55;6.70;;;;;;;;;;6237160;22;20391;-87
2022/03/08 01:37:13;;;;;;;8.85;6.50;;;;;;;;;;6238386;22;20023;-88
2022/03/08 01:39:39;;;;;;;8.40;7.13;;;;;;;;;;6188194;22;20452;-88
2022/03/08 01:42:21;;;;;;;9.45;7.50;;;;;;;;;;6213806;22;20024;-89
2022/03/08 01:44:48;;;;;;;10.60;6.93;;;;;;;;;;6237448;22;20016;-88
2022/03/08 01:47:22;;;;;;;11.07;7.82;;;;;;;;;;6213153;22;20015;-88
2022/03/08 01:50:00;;;;;;;12.85;8.48;;;;;;;;;;6239280;22;20023;-88
2022/03/08 01:52:28;;;;;;;11.25;8.30;;;;;;;;;;6238574;22;20024;-88
2022/03/08 01:55:13;;;;;;;11.57;9.00;;;;;;;;;;6216036;22;20471;-88
2022/03/08 01:57:43;;;;;;;11.60;8.82;;;;;;;;;;6240694;22;20026;-87
2022/03/08 02:00:13;;;;;;;12.73;8.65;;;;;;;;;;6241162;22;20024;-88
2022/03/08 02:03:05;;;;;;;11.45;9.18;;;;;;;;;;6266753;22;20022;-88
2022/03/08 02:05:34;;;;;;;12.55;8.57;;;;;;;;;;6218089;22;20023;-87
2022/03/08 02:08:00;;;;;;;12.68;8.77;;;;;;;;;;6271954;22;20035;-87
2022/03/08 02:10:27;;;;;;;11.88;9.32;;;;;;;;;;6215442;22;20024;-87
2022/03/08 02:12:53;;;;;;;13.25;8.98;;;;;;;;;;6267662;22;20016;-88
2022/03/08 02:15:27;;;;;;;11.02;9.07;;;;;;;;;;6214313;22;20026;-88
2022/03/08 02:18:07;;;;;;;13.18;9.43;;;;;;;;;;6241536;22;20552;-88
2022/03/08 02:21:06;;;;;;;10.30;8.80;;;3.10;99.90;;;;;;6219999;22;20034;-86
2022/03/08 02:23:32;;;;;;;11.10;8.73;;;;;;;;;;6248516;22;20677;-88
2022/03/08 02:25:58;;;;;;;10.45;8.18;;;;;;;;;;6211999;23;20032;-87
2022/03/08 02:28:25;;;;;;;12.00;8.52;;;;;;;;;;6208809;23;20031;-87
2022/03/08 02:30:51;;;;;;;11.02;8.38;;;;;;;;;;6244237;23;20052;-87
2022/03/08 02:33:17;;;;;;;11.27;8.77;;;;;;;;;;6212621;23;20094;-87
2022/03/08 02:35:49;;;;;;;12.52;8.50;;;;;;;;;;6213178;23;20027;-88
2022/03/08 02:38:16;;;;;;;12.65;8.45;;;;;;;;;;6211745;23;20024;-87
2022/03/08 02:40:43;;;;;;;13.55;8.30;;;;;;;;;;6212306;23;20016;-87
2022/03/08 02:43:10;;;;;;;13.52;8.18;;;;;;;;;;6212018;23;20055;-87
2022/03/08 02:45:39;;;;;;;11.82;8.10;;;;;;;;;;6239716;23;20237;-87
2022/03/08 02:48:05;;;;;;;11.45;8.95;;;;;;;;;;6211303;23;20059;-88
2022/03/08 02:50:32;;;;;;;10.60;8.52;;;;;;;;;;6212643;23;20031;-88
2022/03/08 02:52:59;;;;;;;10.48;8.38;;;;;;;;;;6237804;23;20346;-87
2022/03/08 02:55:32;;;;;;;12.32;8.93;;;;;;;;;;6187730;23;20358;-87
2022/03/08 02:57:58;;;;;;;12.40;9.23;;;;;;;;;;6213229;23;20024;-87
2022/03/08 03:00:25;;;;;;;12.55;9.02;;;;;;;;;;6190804;23;20445;-88
2022/03/08 03:02:52;;;;;;;12.65;9.45;;;;;;;;;;6215951;23;20016;-87
2022/03/08 03:05:18;;;;;;;13.90;9.32;;;;;;;;;;6216329;23;20020;-88
2022/03/08 03:07:51;;;;;;;12.57;9.05;;;;;;;;;;6185697;23;20090;-88
2022/03/08 03:10:34;;;;;;;12.93;9.32;;;;;;;;;;6240446;23;20016;-88
2022/03/08 03:13:03;;;;;;;12.13;9.68;;;;;;;;;;6211749;23;20513;-87
2022/03/08 03:15:30;;;;;;;12.73;9.07;;;;;;;;;;6165282;23;20028;-87
2022/03/08 03:17:58;;;;;;;14.23;9.35;;;;;;;;;;6234169;23;20028;-87
2022/03/08 03:20:26;;;;;;;14.55;9.32;;;;;;;;;;6209944;23;20024;-87
2022/03/08 03:22:54;;;;;;;14.90;10.18;;;;;;;;;;6235277;23;20099;-88
2022/03/08 03:25:30;;;;;;;18.02;10.70;;;;;;;;;;6237323;23;20349;-88
2022/03/08 03:27:56;;;;;;;14.88;10.55;;;;;;;;;;6232670;23;20395;-88
2022/03/08 03:30:31;;;;;;;19.60;11.02;;;;;;;;;;6184450;23;20334;-87
2022/03/08 03:33:12;;;;;;;15.27;10.93;;;;;;;;;;6182987;23;20055;-87
2022/03/08 03:35:38;;;;;;;16.27;11.05;;;;;;;;;;6185350;23;20020;-88
2022/03/08 03:38:08;;;;;;;16.55;11.57;;;;;;;;;;6206295;23;20811;-88
2022/03/08 03:40:34;;;;;;;16.00;11.52;;;;;;;;;;6211989;23;20070;-87
2022/03/08 03:43:00;;;;;;;16.02;11.05;;;;;;;;;;6184435;23;20134;-88
2022/03/08 03:45:29;;;;;;;19.05;11.70;;;;;;;;;;6184182;23;20170;-88
2022/03/08 03:47:55;;;;;;;21.63;12.48;;;;;;;;;;6233823;23;20691;-86
2022/03/08 03:50:21;;;;;;;20.33;12.32;;;;;;;;;;6236723;23;20035;-87
2022/03/08 03:52:47;;;;;;;18.38;12.55;;;;;;;;;;6234017;23;20063;-87
2022/03/08 03:55:26;;;;;;;19.98;12.30;;;;;;;;;;6236982;23;20020;-88
2022/03/08 03:57:52;;;;;;;20.85;13.05;;;;;;;;;;6238687;23;20047;-87
2022/03/08 04:00:18;;;;;;;18.13;13.20;;;;;;;;;;6247318;22;20012;-87
2022/03/08 04:02:45;;;;;;;20.10;12.20;;;;;;;;;;6232094;23;20020;-87
2022/03/08 04:05:12;;;;;;;17.48;12.63;;;;;;;;;;6248750;22;20444;-87
2022/03/08 04:07:38;;;;;;;19.42;13.63;;;;;;;;;;6269674;22;20022;-87
2022/03/08 04:10:08;;;;;;;20.42;13.68;;;;;;;;;;6242375;22;20098;-88
2022/03/08 04:12:34;;;;;;;20.80;13.68;;;;;;;;;;6265858;22;20027;-87
2022/03/08 04:15:06;;;;;;;16.83;11.80;;;;;;;;;;6191294;22;20027;-87
2022/03/08 04:17:42;;;;;;;19.02;13.02;;;;;;;;;;6267774;22;20027;-88
2022/03/08 04:20:09;;;;;;;16.30;11.20;;;;;;;;;;6217776;22;20019;-88
2022/03/08 04:22:36;;;;;;;18.08;11.80;;;;;;;;;;6267879;22;20020;-87
2022/03/08 04:25:02;;;;;;;16.23;11.50;;;;;;;;;;6264619;22;20012;-87
2022/03/08 04:27:28;;;;;;;18.45;11.23;;;;;;;;;;6241300;22;20112;-87
2022/03/08 04:29:54;;;;;;;17.15;11.63;;;;;;;;;;6240638;22;20455;-87
2022/03/08 04:32:38;;;;;;;16.58;12.07;;;;;;;;;;6269202;22;20043;-87
2022/03/08 04:40:55;;;;;;;16.98;11.27;;;;;;;;;;6238663;23;20400;-87
2022/03/08 04:43:34;;;;;;;17.05;11.85;;;;;;;;;;6236770;23;20027;-87
2022/03/08 04:46:00;;;;;;;17.90;11.77;;;;;;;;;;6267835;22;20344;-87
2022/03/08 04:48:27;;;;;;;16.63;11.80;;;;;;;;;;6267259;22;20027;-87
2022/03/08 04:50:53;;;;;;;19.35;11.20;;;;;;;;;;6240129;22;20035;-86
2022/03/08 04:53:19;;;;;;;17.52;12.13;;;;;;;;;;6240255;22;20379;-88
2022/03/08 04:55:45;;;;;;;18.23;12.38;;;;;;;;;;6267279;22;20031;-87
2022/03/08 04:58:17;;;;;;;17.20;12.18;;;;;;;;;;6267604;22;20039;-86
2022/03/08 05:01:02;;;;;;;16.40;12.23;;;;;;;;;;6267792;22;20020;-86
2022/03/08 05:04:02;;;;;;;20.83;12.60;;;;;;;;;;6209827;23;20027;-86
2022/03/08 05:06:49;;;;;;;19.20;12.95;;;;;;;;;;6155841;23;20021;-87
2022/03/08 05:09:16;;;;;;;17.55;12.93;;;;;;;;;;6177962;23;20048;-85
2022/03/08 05:11:43;;;;;;;20.05;12.63;;;;;;;;;;6201423;23;20025;-86
2022/03/08 05:14:09;;;;;;;18.02;12.40;;;;;;;;;;6174815;23;20062;-86
2022/03/08 05:16:35;;;;;;;17.88;13.13;;;;;;;;;;6175136;23;20016;-85
2022/03/08 05:19:01;;;;;;;17.98;13.50;;;;;;;;;;6177165;23;20016;-86
2022/03/08 05:21:30;;;;;;;19.85;13.13;;;;;;;;;;6155330;23;20028;-85
2022/03/08 05:23:58;;;;;;;19.23;12.80;;;;;;;;;;6204073;23;20024;-85
2022/03/08 05:26:25;;;;;;;18.45;12.60;;;;;;;;;;6179961;23;20060;-86
2022/03/08 05:28:53;;;;;;;19.63;13.73;;;;;;;;;;6178327;23;20099;-86
2022/03/08 05:31:19;;;;;;;18.38;12.68;;;;;;;;;;6155040;23;20030;-86
2022/03/08 05:33:45;;;;;;;25.00;14.50;;;;;;;;;;6215735;22;20031;-86
2022/03/08 05:36:11;;;;;;;19.33;13.68;;;;;;;;;;6215631;22;20027;-86
2022/03/08 05:38:37;;;;;;;24.98;13.52;;;;;;;;;;6264654;22;20020;-86
2022/03/08 05:44:23;;;;;;;25.17;12.60;;;;;;;;;;6268268;22;20026;-86
2022/03/08 05:46:55;;;;;;;19.77;12.68;;;;;;;;;;6277486;22;20997;-91
2022/03/08 05:49:55;;;;;;;18.30;12.52;;;;;;;;;;6247678;22;20015;-92
2022/03/08 05:52:47;;;;;;;22.92;13.95;;;;;;;;;;6235411;23;20031;-92
2022/03/08 06:01:16;;;;;;;21.80;14.10;;;;;;;;;;6251079;22;20034;-91
2022/03/08 06:06:38;;;;;;;27.90;15.82;;;;;;;;;;6247366;22;20038;-89
2022/03/08 06:09:27;;;;;;;26.17;16.13;;;;;;;;;;6230789;22;20024;-93
2022/03/08 06:35:28;;;;;;;29.95;18.20;;;;;;;;;;6252206;22;20172;-90
2022/03/08 06:37:54;;;;;;;29.83;18.08;;;;;;;;;;6237832;22;20032;-89
2022/03/08 06:40:20;;;;;;;30.88;19.00;;;;;;;;;;6184798;23;20047;-89
2022/03/08 06:46:22;;;;;;;26.77;17.42;;;;;;;;;;6204298;22;20030;-92
2022/03/08 06:48:48;;;;;;;27.92;17.00;;;;;;;;;;6258155;22;20531;-92
2022/03/08 06:51:21;;;;;;;25.83;17.15;;;;;;;;;;6262236;22;20080;-91
2022/03/08 06:59:46;;;;;;;25.90;16.25;;;;;;;;;;6194632;22;20074;-89
2022/03/08 07:05:47;;;;;;;28.20;18.20;;;;;;;;;;6243360;22;20043;-90
2022/03/08 07:14:25;;;;;;;27.85;15.60;;;;;;;;;;6231724;22;20047;-90
2022/03/08 07:32:39;;;;;;;21.38;13.93;;;;;;;;;;6213763;22;20024;-91
2022/03/08 07:51:05;;;;;;;19.85;13.18;;;;;;;;;;6228277;22;20110;-91
2022/03/08 08:20:03;;;;;;;15.75;11.27;;;;;;;;;;6224765;22;21687;-89
2022/03/08 08:38:32;;;;;;;16.00;12.15;;;5.40;99.90;;;;;;6205888;23;20162;31
2022/03/08 08:48:38;;;;;;;9.85;8.35;;;;;;;;;;6223740;22;20043;-89
2022/03/08 09:15:22;;;;;;;13.55;8.10;;;;;;;;;;6236694;23;20166;-89
2022/03/08 09:17:48;;;;;;;14.38;8.95;;;;;;;;;;6183415;23;20016;-91
2022/03/08 09:54:21;;;;;;;11.13;8.45;;;;;;;;;;6229751;22;20023;-91
2022/03/08 09:56:47;;;;;;;11.05;8.43;;;;;;;;;;6153989;23;20107;-91
2022/03/08 09:59:20;;;;;;;11.27;7.88;;;;;;;;;;6154137;23;20025;-91
2022/03/08 10:01:49;;;;;;;10.15;7.28;;;;;;;;;;6152784;23;20021;-91
2022/03/08 10:04:19;;;;;;;10.32;7.65;;;;;;;;;;6152243;23;20033;-90
2022/03/08 10:06:47;;;;;;;10.15;7.63;;;;;;;;;;6151934;23;20089;-91
2022/03/08 10:12:25;;;;;;;11.20;6.95;;;;;;;;;;6248448;22;20039;-90
2022/03/08 10:14:55;;;;;;;9.30;6.53;;;;;;;;;;6122775;23;20104;-91
2022/03/08 10:19:56;;;;;;;11.73;6.95;;;;;;;;;;6207061;23;20035;-90
2022/03/08 10:32:21;;;;;;;8.68;6.38;;;;;;;;;;6215035;23;20052;-91
2022/03/08 10:38:47;;;;;;;8.20;6.03;;;;;;;;;;6243094;22;20046;-92
2022/03/08 10:41:41;;;;;;;9.52;6.13;;;;;;;;;;6211290;23;20344;-91
2022/03/08 11:01:10;;;;;;;8.85;5.80;;;9.80;99.90;;;;;;6242455;22;20090;-91
2022/03/08 11:15:46;;;;;;;13.93;6.03;;;;;;;;;;6220574;22;20117;-91
2022/03/08 11:21:02;;;;;;;9.48;5.63;;;;;;;;;;6221498;22;20028;-91
2022/03/08 11:26:10;;;;;;;9.38;5.57;;;;;;;;;;6202985;22;20158;31
2022/03/08 11:31:48;;;;;;;6.38;5.10;;;;;;;;;;6233732;23;20054;-94
2022/03/08 11:48:46;;;;;;;5.82;5.13;;;;;;;;;;6182772;23;20065;-92
2022/03/08 11:54:18;;;;;;;6.50;5.15;;;;;;;;;;6153889;23;20029;-91
2022/03/08 12:04:03;;;;;;;5.88;5.25;;;;;;;;;;6181899;23;20075;-91
2022/03/08 12:25:04;;;;;;;6.20;4.40;;;;;;;;;;6267216;22;20112;-94
2022/03/08 12:27:49;;;;;;;5.28;4.35;;;;;;;;;;6156093;23;20067;-94
2022/03/08 13:27:04;;;;;;;4.65;4.10;;;;;;;;;;6176534;23;20040;-92
2022/03/08 13:29:48;;;;;;;5.20;4.53;;;;;;;;;;6150704;23;20025;-91
2022/03/08 13:32:20;;;;;;;4.85;4.28;;;;;;;;;;6175188;22;20460;-92
2022/03/08 13:35:10;;;;;;;5.35;4.60;;;;;;;;;;6197304;23;20031;-93
2022/03/08 13:38:00;;;;;;;6.10;4.75;;;;;;;;;;6171025;23;20357;-92
2022/03/08 13:40:52;;;;;;;8.40;5.22;;;;;;;;;;6156794;23;20426;-92
2022/03/08 13:43:21;;;;;;;7.35;4.30;;;;;;;;;;6182667;23;20024;-92
2022/03/08 13:46:24;;;;;;;9.27;4.78;;;;;;;;;;6157037;23;20012;-92
2022/03/08 16:45:49;;;;;;;;;;;;;;;;;;;;;
2022/03/08 17:55:50;;;;;;;6.35;4.55;;;;;;;;;;6256602;22;20526;-94
2022/03/08 18:05:17;;;;;;;9.25;3.70;;;;;;;;;;6206405;22;20038;-89
2022/03/08 18:16:30;;;;;;;6.68;4.43;;;;;;;;;;6267030;22;20023;-91
2022/03/08 18:34:20;;;;;;;5.57;3.92;;;;;;;;;;6236123;22;20383;-91
2022/03/08 19:15:54;;;;;;;5.25;4.00;;;;;;;;;;6197292;22;20071;-92
2022/03/08 19:31:04;;;;;;;4.65;3.60;;;;;;;;;;6224898;22;20066;-92
2022/03/08 19:36:55;;;;;;;8.15;3.45;;;;;;;;;;6215631;23;20039;-92
2022/03/08 19:51:30;;;;;;;6.25;4.03;;;;;;;;;;6199402;22;20039;31
2022/03/08 19:57:58;;;;;;;4.10;3.20;;;;;;;;;;6265705;22;20028;31
2022/03/08 20:01:00;;;;;;;9.68;3.63;;;;;;;;;;6103647;23;19924;-92
2022/03/08 20:06:52;;;;;;;6.85;3.20;;;;;;;;;;6120716;23;20064;-92
2022/03/08 20:09:28;;;;;;;4.25;3.10;;;;;;;;;;6096449;23;20454;-92
2022/03/08 20:15:36;;;;;;;3.95;3.15;;;;;;;;;;6230224;23;20024;-91
2022/03/08 20:22:09;;;;;;;4.07;3.60;;;;;;;;;;6227948;22;20057;-90
2022/03/08 20:27:33;;;;;;;6.03;3.20;;;;;;;;;;6229497;22;20039;-91
2022/03/08 20:30:13;;;;;;;4.45;3.40;;;;;;;;;;6182972;23;20314;-91
2022/03/08 20:35:15;;;;;;;5.07;3.50;;;;;;;;;;6245474;22;20038;-93
2022/03/08 20:37:42;;;;;;;9.18;3.83;;;;;;;;;;6215820;23;20035;-93
2022/03/08 20:49:56;;;;;;;4.50;3.13;;;;;;;;;;6265749;22;20037;-92
2022/03/08 21:06:03;;;;;;;4.10;3.25;;;;;;;;;;6223549;22;20577;-91
2022/03/08 21:08:47;;;;;;;5.70;3.90;;;;;;;;;;6240035;22;20016;-92
2022/03/08 21:29:27;;;;;;;6.25;3.55;;;;;;;;;;6242256;22;20039;-90
2022/03/08 21:31:54;;;;;;;5.43;3.25;;;;;;;;;;6181420;23;20028;-94
2022/03/08 21:36:59;;;;;;;6.15;3.47;;;;;;;;;;6253972;22;20031;-90
2022/03/08 21:42:52;;;;;;;6.38;3.88;;;;;;;;;;6240908;22;20051;-89
2022/03/08 21:49:15;;;;;;;4.45;3.38;;;5.00;99.90;;;;;;6213216;22;20027;-89
2022/03/08 21:51:57;;;;;;;6.70;3.85;;;;;;;;;;6188533;22;20549;-89
2022/03/08 21:54:55;;;;;;;6.10;3.85;;;;;;;;;;6241922;22;20024;-90
2022/03/08 21:57:36;;;;;;;7.53;4.43;;;;;;;;;;6215645;22;20020;-89
2022/03/08 22:23:22;;;;;;;12.82;3.45;;;;;;;;;;6280716;22;20122;-92
2022/03/08 22:25:49;;;;;;;4.07;2.90;;;;;;;;;;6212756;23;20035;-91
2022/03/08 22:28:16;;;;;;;4.55;2.80;;;;;;;;;;6186694;23;20016;-91
2022/03/08 22:33:59;;;;;;;5.38;3.00;;;;;;;;;;6206902;23;20498;-92
2022/03/08 22:36:25;;;;;;;4.20;3.05;;;;;;;;;;6211418;23;20020;-91
2022/03/08 22:38:51;;;;;;;6.78;2.90;;;;;;;;;;6236696;23;20044;-91
2022/03/08 22:41:21;;;;;;;5.30;2.70;;;;;;;;;;6212254;23;20340;-91
2022/03/08 22:46:49;;;;;;;4.47;3.03;;;;;;;;;;6265835;22;20050;-92
2022/03/08 22:49:16;;;;;;;4.15;3.13;;;;;;;;;;6243121;22;20108;-92
2022/03/08 23:04:21;;;;;;;8.45;3.40;;;;;;;;;;6149993;23;20032;-91
2022/03/08 23:10:36;;;;;;;4.20;3.42;;;;;;;;;;6176482;23;20063;-92
2022/03/08 23:29:38;;;;;;;4.00;3.00;;;;;;;;;;6180473;23;20518;-92
2022/03/08 23:32:19;;;;;;;4.93;3.28;;;;;;;;;;6136486;23;20029;-90
2022/03/08 23:34:48;;;;;;;5.13;3.20;;;;;;;;;;6152322;23;20025;-91
2022/03/08 23:37:14;;;;;;;4.50;3.35;;;;;;;;;;6153264;23;20036;-91
2022/03/08 23:39:40;;;;;;;5.47;3.65;;;;;;;;;;6127500;23;20017;-88
2022/03/08 23:42:10;;;;;;;11.10;6.93;;;;;;;;;;6126023;23;20070;-89
2022/03/08 23:44:39;;;;;;;6.00;4.10;;;;;;;;;;6127185;23;20112;-88
2022/03/08 23:47:11;;;;;;;6.90;3.90;;;;;;;;;;6151494;23;20445;-88
2022/03/08 23:49:37;;;;;;;10.95;3.75;;;;;;;;;;6127656;23;20025;-89
2022/03/08 23:52:09;;;;;;;6.25;3.55;;;;;;;;;;6125703;23;20029;-89
2022/03/08 23:54:42;;;;;;;5.10;3.33;;;;;;;;;;6128217;23;20024;-91
2022/03/08 23:57:11;;;;;;;10.00;3.47;;;;;;;;;;6152040;23;20088;-92
2022/03/08 23:59:43;;;;;;;5.07;3.80;;;;;;;;;;6128033;23;20087;-89
